»·PEaware :: DAL6754 KSEA-KJAC

DAL6754 :: KSEA-KJAC

FLIGHT INFORMATION

Flight Status: Arrived
Operator:
Delta Air Lines
More flights by this operator :: More flights under this callsign
Pilot: Skye D. (10623)
Aircraft: AIRBUS A320
(A320)
More flights by this aircraft type
Origin: KSEA Seattle-Tacoma Intl
United States
Destination: KJAC Jackson Hole
United States
More flights between these airports :: More routes between these airports
Route: SUMMA1 SUMMA J54 BKE DNW JAC
File this flight plan on PilotEdge
Remarks:
Altitude:
(Current/Filed)
37,000ft
Speed:
(Current/Filed)
431kts
Departed: 02-Feb-18 11:45 AM
Arrived: 02-Feb-18 01:17 PM
Distance/Time
Traveled:
538nm/1:32
Distance/Time
To Go:
Arrived

Flight Plot

Page will automatically refresh every two minutes.

Flight plan parsing failed; only flown route is shown


Map Options




Map Legend


Flown Route
Filed Route
Departure Airport
Arrival Airport
Navaid (VOR, NDB)
Fix

Horizontal Profiles

Position Reports

Time Latitude Longitude Heading Altitude Ground
Speed
02-Feb-18 11:26 47.438006 -122.304259 62 441ft 0kts
02-Feb-18 11:27 47.438006 -122.304259 62 441ft 0kts
02-Feb-18 11:28 47.438006 -122.304259 62 441ft 0kts
02-Feb-18 11:29 47.438006 -122.304259 62 441ft 0kts
02-Feb-18 11:30 47.438006 -122.304259 62 441ft 0kts
02-Feb-18 11:31 47.438006 -122.304259 62 441ft 0kts
02-Feb-18 11:32 47.438006 -122.304259 62 441ft 0kts
02-Feb-18 11:33 47.438006 -122.304259 62 441ft 0kts
02-Feb-18 11:34 47.438006 -122.304259 62 441ft 0kts
02-Feb-18 11:35 47.438006 -122.304259 62 441ft 0kts
02-Feb-18 11:36 47.438006 -122.304259 62 441ft 0kts
02-Feb-18 11:37 47.438003 -122.304267 62 441ft 1kts
02-Feb-18 11:38 47.437740 -122.304802 8 441ft 1kts
02-Feb-18 11:39 47.437316 -122.304435 302 441ft 2kts
02-Feb-18 11:40 47.437236 -122.304023 271 441ft 0kts
02-Feb-18 11:41 47.437236 -122.304023 271 441ft 0kts
02-Feb-18 11:42 47.437240 -122.304742 269 441ft 8kts
02-Feb-18 11:43 47.437252 -122.305696 276 441ft 10kts
02-Feb-18 11:44 47.441062 -122.306365 0 441ft 22kts
02-Feb-18 11:45 47.446633 -122.306294 0 441ft 29kts
02-Feb-18 11:46 47.453331 -122.306161 2 441ft 24kts
02-Feb-18 11:47 47.458448 -122.306185 359 441ft 18kts
02-Feb-18 11:48 47.462625 -122.306115 2 441ft 15kts
02-Feb-18 11:49 47.463695 -122.306309 297 441ft 0kts
02-Feb-18 11:50 47.462939 -122.307760 181 441ft 10kts
02-Feb-18 11:51 47.437262 -122.307966 186 1779ft 158kts
02-Feb-18 11:52 47.399158 -122.307147 193 4378ft 161kts
02-Feb-18 11:53 47.357660 -122.308647 192 6200ft 178kts
02-Feb-18 11:54 47.307146 -122.309406 190 7458ft 251kts
02-Feb-18 11:55 47.248221 -122.309176 185 9760ft 275kts
02-Feb-18 11:56 47.181987 -122.275651 170 11854ft 318kts
02-Feb-18 11:57 47.102190 -122.234210 169 13470ft 371kts
02-Feb-18 11:58 47.015641 -122.189789 169 15967ft 388kts
02-Feb-18 11:59 46.919990 -122.140990 169 18185ft 407kts
02-Feb-18 12:00 46.820018 -122.090234 169 20147ft 420kts
02-Feb-18 12:01 46.713216 -122.036203 169 21873ft 436kts
02-Feb-18 12:02 46.609313 -121.959967 131 23612ft 478kts
02-Feb-18 12:03 46.541572 -121.795128 121 25401ft 498kts
02-Feb-18 12:04 46.473911 -121.625276 120 27299ft 508kts
02-Feb-18 12:05 46.402303 -121.447264 120 28769ft 522kts
02-Feb-18 12:06 46.333182 -121.274784 120 30012ft 533kts
02-Feb-18 12:07 46.262210 -121.099753 121 32290ft 511kts
02-Feb-18 12:08 46.192535 -120.929315 121 33646ft 507kts
02-Feb-18 12:09 46.121775 -120.757296 121 34825ft 504kts
02-Feb-18 12:10 46.050358 -120.584754 121 35783ft 504kts
02-Feb-18 12:11 45.980801 -120.417740 121 36733ft 503kts
02-Feb-18 12:12 45.910732 -120.249151 122 37207ft 502kts
02-Feb-18 12:13 45.839468 -120.080213 122 37202ft 503kts
02-Feb-18 12:14 45.767228 -119.909885 122 37202ft 503kts
02-Feb-18 12:15 45.694769 -119.739742 122 37203ft 505kts
02-Feb-18 12:16 45.621863 -119.569731 122 37203ft 504kts
02-Feb-18 12:17 45.548455 -119.399469 122 37204ft 504kts
02-Feb-18 12:18 45.475819 -119.230658 123 37202ft 504kts
02-Feb-18 12:19 45.402322 -119.062100 123 37202ft 503kts
02-Feb-18 12:20 45.328725 -118.894432 123 37203ft 503kts
02-Feb-18 12:21 45.254411 -118.726133 123 37249ft 504kts
02-Feb-18 12:22 45.180481 -118.559700 123 37250ft 502kts
02-Feb-18 12:23 45.105823 -118.392606 123 37271ft 502kts
02-Feb-18 12:24 45.033231 -118.229780 124 37267ft 503kts
02-Feb-18 12:25 44.958741 -118.064846 124 37300ft 503kts
02-Feb-18 12:26 44.884179 -117.900911 124 37302ft 503kts
02-Feb-18 12:27 44.832165 -117.721944 98 37303ft 503kts
02-Feb-18 12:28 44.809631 -117.529321 96 37304ft 503kts
02-Feb-18 12:29 44.788026 -117.338095 97 37303ft 503kts
02-Feb-18 12:30 44.766814 -117.148853 97 37302ft 504kts
02-Feb-18 12:31 44.745230 -116.963314 97 37303ft 505kts
02-Feb-18 12:32 44.722718 -116.772677 97 37275ft 505kts
02-Feb-18 12:33 44.700203 -116.584807 97 37276ft 504kts
02-Feb-18 12:34 44.676860 -116.392849 97 37277ft 504kts
02-Feb-18 12:35 44.654561 -116.208352 98 37275ft 504kts
02-Feb-18 12:36 44.630536 -116.015902 98 37275ft 504kts
02-Feb-18 12:37 44.606332 -115.825098 98 37276ft 504kts
02-Feb-18 12:38 44.581628 -115.633055 98 37276ft 503kts
02-Feb-18 12:39 44.556776 -115.442507 98 37277ft 503kts
02-Feb-18 12:40 44.532088 -115.252490 99 37302ft 504kts
02-Feb-18 12:41 44.506511 -115.061028 99 37303ft 503kts
02-Feb-18 12:42 44.480652 -114.870522 99 37303ft 503kts
02-Feb-18 12:43 44.454298 -114.678909 99 37223ft 503kts
02-Feb-18 12:44 44.427595 -114.487295 99 37231ft 503kts
02-Feb-18 12:45 44.401246 -114.299031 99 37229ft 503kts
02-Feb-18 12:46 44.374249 -114.108148 100 37229ft 503kts
02-Feb-18 12:47 44.346849 -113.918784 100 36614ft 497kts
02-Feb-18 12:48 44.319148 -113.729717 100 33504ft 502kts
02-Feb-18 12:49 44.291032 -113.540121 100 30432ft 502kts
02-Feb-18 12:50 44.262597 -113.350675 99 27187ft 501kts
02-Feb-18 12:51 44.235672 -113.170072 100 24191ft 505kts
02-Feb-18 12:52 44.210190 -112.996998 95 23758ft 461kts
02-Feb-18 12:53 44.188431 -112.828180 98 21234ft 446kts
02-Feb-18 12:54 44.165168 -112.662104 97 18841ft 428kts
02-Feb-18 12:55 44.142817 -112.502916 96 16489ft 412kts
02-Feb-18 12:56 44.121128 -112.349799 96 16020ft 409kts
02-Feb-18 12:57 44.099547 -112.195839 96 16020ft 410kts
02-Feb-18 12:58 44.077082 -112.040415 97 16020ft 410kts
02-Feb-18 12:59 44.062182 -111.896778 81 15908ft 398kts
02-Feb-18 13:00 44.066844 -111.747210 81 14275ft 386kts
02-Feb-18 13:01 44.072058 -111.607044 81 12690ft 375kts
02-Feb-18 13:02 44.079328 -111.467772 81 12020ft 371kts
02-Feb-18 13:03 44.085478 -111.353892 81 12017ft 340kts
02-Feb-18 13:04 44.090693 -111.243178 81 12037ft 305kts
02-Feb-18 13:05 44.096974 -111.132090 81 12037ft 311kts
02-Feb-18 13:06 44.103904 -111.016050 81 12023ft 263kts
02-Feb-18 13:07 44.108652 -110.933418 81 12026ft 262kts
02-Feb-18 13:08 44.115688 -110.833097 81 12028ft 262kts
02-Feb-18 13:10 44.124033 -110.717311 81 12028ft 262kts
02-Feb-18 13:10 44.129966 -110.634959 81 12017ft 250kts
02-Feb-18 13:11 44.112520 -110.551022 153 11972ft 235kts
02-Feb-18 13:12 44.066880 -110.510396 151 11974ft 235kts
02-Feb-18 13:13 44.006331 -110.495595 181 11983ft 224kts
02-Feb-18 13:14 43.954217 -110.522154 219 11983ft 206kts
02-Feb-18 13:15 43.909762 -110.562705 222 11983ft 204kts
02-Feb-18 13:16 43.867208 -110.604641 214 11778ft 207kts
02-Feb-18 13:17 43.815900 -110.635046 206 10729ft 200kts
02-Feb-18 13:18 43.768545 -110.658888 205 9704ft 194kts
02-Feb-18 13:19 43.720887 -110.682311 202 8690ft 193kts
02-Feb-18 13:20 43.675879 -110.704301 202 7738ft 163kts
02-Feb-18 13:21 43.640649 -110.721573 201 7020ft 139kts
02-Feb-18 13:22 43.608368 -110.737260 199 6460ft 113kts
02-Feb-18 13:23 43.599105 -110.740581 130 6459ft 4kts
02-Feb-18 13:24 43.599528 -110.738731 16 6459ft 13kts
02-Feb-18 13:25 43.602123 -110.737258 106 6459ft 0kts
02-Feb-18 13:26 43.602123 -110.737255 106 6459ft 0kts

Navigation Log

Ident Type
Flight plan parsing failed, navigation log unavailable